createdAt,value
2023-11-13T00:58:51.041Z,99.90001
2023-11-13T01:29:09.602Z,99.90001
2023-11-13T01:59:35.305Z,99.90001
2023-11-13T02:29:56.010Z,99.90001
2023-11-13T03:00:15.156Z,99.90001
2023-11-13T03:30:32.561Z,99.90001
2023-11-13T04:00:50.935Z,99.90001
2023-11-13T04:31:09.236Z,99.90001
2023-11-13T05:01:36.982Z,99.90001
2023-11-13T05:31:55.274Z,99.90001
2023-11-13T06:02:13.967Z,99.90001
2023-11-13T06:32:32.013Z,99.90001
2023-11-13T07:02:50.728Z,99.90001
2023-11-13T07:33:08.905Z,99.90001
2023-11-13T08:03:26.954Z,99.90001
2023-11-13T08:33:46.279Z,99.90001
2023-11-13T09:04:04.961Z,99.90001
2023-11-13T09:34:22.325Z,99.90001
2023-11-13T10:04:42.076Z,99.90001
2023-11-13T10:35:00.486Z,99.90001
2023-11-13T11:05:29.734Z,99.90001
2023-11-13T11:35:51.452Z,99.90001
2023-11-13T12:06:10.923Z,99.90001
2023-11-13T12:36:30.216Z,99.90001
2023-11-13T13:06:48.673Z,99.90001
2023-11-13T13:37:07.247Z,99.90001
2023-11-13T14:07:26.024Z,99.90001
2023-11-13T14:37:45.997Z,99.90001
2023-11-13T15:08:04.287Z,99.90001
2023-11-13T15:38:22.246Z,99.90001
2023-11-13T16:08:43.297Z,99.90001
2023-11-13T16:39:06.004Z,99.90001
2023-11-13T17:09:25.375Z,99.90001
2023-11-13T17:39:43.630Z,99.90001
2023-11-13T18:10:02.424Z,99.90001
2023-11-13T18:40:25.540Z,99.90001
2023-11-13T19:10:44.056Z,99.90001
2023-11-13T19:41:01.822Z,99.90001
2023-11-13T20:11:19.627Z,93.7
2023-11-13T20:41:36.178Z,88.4
2023-11-13T21:11:54.639Z,92.2
2023-11-13T21:42:14.200Z,94.90001
2023-11-13T22:12:32.368Z,93.2
2023-11-13T22:42:50.469Z,91.7
2023-11-13T23:13:08.475Z,93.2
2023-11-13T23:43:25.776Z,93.5
